Târgu Mureş, România

09:35 AM EEST on septembrie 30, 2016 (GMT +0300)
Vidrasau | | Change Station

Elev 961 ft 46.47 °N, 24.41 °E | Updated 5 minutes ago

Partly Cloudy
Cer parţial noros
52 °F
Feels Like 52 °F
N
5
Vânt variabil Vânt from est

astăzi
High -- | Low -- °F
--% Chance of Precip.
Ieri
High -- | Low -- °F
Precip. -- inch
Presiunea 30.21 inch
Vizibilitatea 3.1 mile
Nori Few 1100 ft
Punctul de rouă 48 °F
Umiditatea 88%
Precipitaţii 0.00 inch
Adâncimea zăpezii Not available.
7:19 AM 7:03 PM
Semilună în descreştere, 1% visible
METAR LRTM 300630Z 09004KT 5000 BR FEW011 11/09 Q1023
Presiunea 30.21 inch
Vizibilitatea 3.1 mile
Nori Few 1100 ft
Punctul de rouă 48 °F
Umiditatea 88%
Precipitaţii 0.00 inch
Adâncimea zăpezii Not available.
7:19 AM 7:03 PM
Semilună în descreştere, 1% visible
METAR LRTM 300630Z 09004KT 5000 BR FEW011 11/09 Q1023

10-Day Weather Forecast

×

Almanac

Astronomie

Sep. 30, 2016 Răsărit Apus
Timpul Actual
Crepusculul Civil
Crepusculul nautic
Răsărit Astronomic
Luna
Durata zilei lumină
Lungimea zilei
Tomorrow will be .
, % of the Moon is Illuminated

Extremele de azi

Country Highs Country Lows

Community

WunderPhotos

Upload Photos

1,942,668 photos uploaded!

WunderBlog® & News

Nearby

Calitatea aerului

  Calitatea aerului Index de calitate a aerului Poluat
Not available.

Adâncimea zapezii

Station Depth Elevation

Earthquake Activity

Oraş Distance Mag. Time & Date
Minimum magnitude displayed is 2.5.

Coastal Water Temperatures

Locul Temperatura

Stations

Nearby Weather Stations

Locaţia staţiei Temp Vânt rece Punctul de rouă Umiditatea Vânt Precip. Elev Actualizare Type